Time;durP1;ratioP1;P1;durP2;ratioP2;P2;SDS_P1;SDS_P2;PMS_P1;PMS_P2;Temp;Humidity;BMP_temperature;BMP_pressure;BME280_temperature;BME280_humidity;BME280_pressure;Samples;Min_cycle;Max_cycle;Signal;HPM_P1;HPM_P2
2023/09/26 00:02:04;;;;;;;6.70;3.35;;;13.40;99.90;;;;;;5051183;28;20284;-71
2023/09/26 00:04:33;;;;;;;6.65;3.53;;;13.40;99.90;;;;;;5049645;28;20221;-71
2023/09/26 00:07:02;;;;;;;3.33;2.95;;;13.40;99.90;;;;;;5044621;28;20582;-71
2023/09/26 00:09:30;;;;;;;2.65;2.55;;;13.40;99.90;;;;;;5050728;28;20324;-71
2023/09/26 00:12:00;;;;;;;5.63;3.10;;;13.40;99.90;;;;;;5050609;28;20263;-71
2023/09/26 00:14:28;;;;;;;4.35;3.40;;;13.40;99.90;;;;;;5049368;28;20229;-71
2023/09/26 00:16:56;;;;;;;4.13;3.22;;;13.40;99.90;;;;;;5052223;28;20226;-70
2023/09/26 00:19:24;;;;;;;3.30;2.90;;;13.40;99.90;;;;;;5051845;28;20206;-71
2023/09/26 00:21:52;;;;;;;3.63;3.03;;;13.40;99.90;;;;;;5042798;28;20206;-71
2023/09/26 00:24:19;;;;;;;5.05;3.03;;;13.30;99.90;;;;;;5050747;28;20216;-71
2023/09/26 00:26:47;;;;;;;4.03;2.95;;;13.30;99.90;;;;;;5042674;28;20261;-71
2023/09/26 00:29:16;;;;;;;3.40;3.03;;;13.30;99.90;;;;;;5050434;28;20642;-71
2023/09/26 00:31:44;;;;;;;3.75;3.50;;;13.30;99.90;;;;;;5050037;28;20688;-71
2023/09/26 00:34:13;;;;;;;3.90;3.50;;;13.20;99.90;;;;;;5050506;28;20209;-71
2023/09/26 00:36:40;;;;;;;3.47;3.10;;;13.20;99.90;;;;;;5053638;28;20229;-71
2023/09/26 00:39:08;;;;;;;4.20;3.20;;;13.20;99.90;;;;;;5054265;28;20213;-71
2023/09/26 00:41:36;;;;;;;3.40;3.10;;;13.20;99.90;;;;;;5054579;28;20275;-71
2023/09/26 00:44:06;;;;;;;6.50;3.35;;;13.20;99.90;;;;;;5054744;28;20289;-71
2023/09/26 00:46:35;;;;;;;7.15;3.45;;;13.20;99.90;;;;;;5054542;28;20257;-70
2023/09/26 00:49:04;;;;;;;5.35;3.47;;;13.20;99.90;;;;;;5048737;28;20222;-71
2023/09/26 00:51:32;;;;;;;3.45;3.15;;;13.20;99.90;;;;;;5052051;28;20557;-71
2023/09/26 00:54:00;;;;;;;6.03;3.60;;;13.20;99.90;;;;;;5046312;28;20251;-71
2023/09/26 00:56:28;;;;;;;3.53;3.00;;;13.20;99.90;;;;;;5054297;28;20267;-71
2023/09/26 00:58:56;;;;;;;3.08;2.85;;;13.10;99.90;;;;;;5053563;28;20202;-71
2023/09/26 01:01:25;;;;;;;5.53;3.35;;;13.10;99.90;;;;;;5053087;28;20298;-71
2023/09/26 01:03:55;;;;;;;3.03;2.83;;;13.10;99.90;;;;;;5053715;28;20233;-70
2023/09/26 01:06:23;;;;;;;6.45;3.13;;;13.00;99.90;;;;;;5053949;28;20234;-71
2023/09/26 01:08:51;;;;;;;3.05;2.85;;;13.00;99.90;;;;;;5045890;28;20275;-71
2023/09/26 01:11:19;;;;;;;4.20;3.65;;;13.00;99.90;;;;;;5054292;28;20249;-71
2023/09/26 01:13:47;;;;;;;6.18;3.10;;;13.00;99.90;;;;;;5049224;28;20238;-71
2023/09/26 01:16:15;;;;;;;5.13;3.50;;;13.00;99.90;;;;;;5069258;22;20232;-60
2023/09/26 01:18:43;;;;;;;7.63;3.50;;;13.00;99.90;;;;;;5072092;28;20225;-61
2023/09/26 01:21:13;;;;;;;4.10;3.60;;;13.00;99.90;;;;;;5051134;28;20818;-60
2023/09/26 01:23:41;;;;;;;4.28;3.40;;;12.90;99.90;;;;;;5051889;28;20234;-61
2023/09/26 01:26:10;;;;;;;4.70;3.80;;;12.90;99.90;;;;;;5054118;28;20198;-62
2023/09/26 01:28:38;;;;;;;4.38;3.55;;;12.90;99.90;;;;;;5049941;28;20321;-61
2023/09/26 01:31:06;;;;;;;3.47;3.28;;;12.90;99.90;;;;;;5053620;28;20719;-59
2023/09/26 01:33:34;;;;;;;5.57;3.25;;;12.80;99.90;;;;;;5053721;28;20242;-59
2023/09/26 01:36:02;;;;;;;4.50;3.22;;;12.80;99.90;;;;;;5053921;28;20275;-60
2023/09/26 01:38:30;;;;;;;3.30;3.10;;;12.80;99.90;;;;;;5053136;28;20245;-61
2023/09/26 01:40:58;;;;;;;4.75;3.60;;;12.80;99.90;;;;;;5053710;28;20226;-61
2023/09/26 01:43:27;;;;;;;3.60;3.22;;;12.80;99.90;;;;;;5053790;28;20245;-61
2023/09/26 01:45:55;;;;;;;3.10;2.90;;;12.70;99.90;;;;;;5046135;28;20202;-60
2023/09/26 01:48:23;;;;;;;5.55;3.13;;;12.70;99.90;;;;;;5052225;28;20304;-60
2023/09/26 01:50:51;;;;;;;5.55;3.33;;;12.70;99.90;;;;;;5052481;28;20222;-62
2023/09/26 01:53:19;;;;;;;4.50;3.55;;;12.70;99.90;;;;;;5053298;28;20271;-61
2023/09/26 01:55:46;;;;;;;3.90;3.60;;;12.70;99.90;;;;;;5053118;28;22287;-61
2023/09/26 01:58:14;;;;;;;3.30;3.10;;;12.70;99.90;;;;;;5053042;28;20740;-62
2023/09/26 02:00:43;;;;;;;4.68;3.42;;;12.70;99.90;;;;;;5052778;28;20221;-62
2023/09/26 02:03:11;;;;;;;4.00;3.17;;;12.70;99.90;;;;;;5053169;28;20206;-61
2023/09/26 02:05:39;;;;;;;4.63;2.92;;;12.70;99.90;;;;;;5053051;28;20260;-61
2023/09/26 02:08:07;;;;;;;5.05;3.70;;;12.70;99.90;;;;;;5052819;28;20205;-61
2023/09/26 02:10:34;;;;;;;3.40;3.20;;;12.70;99.90;;;;;;5052719;28;20650;-61
2023/09/26 02:13:02;;;;;;;5.05;3.10;;;12.70;99.90;;;;;;5053282;28;20275;-62
2023/09/26 02:15:30;;;;;;;4.63;3.40;;;12.70;99.90;;;;;;5053088;28;20202;-61
2023/09/26 02:18:00;;;;;;;3.88;3.67;;;12.60;99.90;;;;;;5052814;28;20233;-61
2023/09/26 02:20:28;;;;;;;4.68;3.40;;;12.60;99.90;;;;;;5052557;28;20249;-61
2023/09/26 02:22:56;;;;;;;5.22;3.40;;;12.60;99.90;;;;;;5052779;28;20679;-59
2023/09/26 02:25:24;;;;;;;6.03;3.97;;;12.60;99.90;;;;;;5053208;28;20238;-59
2023/09/26 02:27:53;;;;;;;4.13;3.72;;;12.60;99.90;;;;;;5052674;28;20283;-59
2023/09/26 02:30:22;;;;;;;3.88;3.38;;;12.50;99.90;;;;;;5051912;28;20236;-59
2023/09/26 02:32:50;;;;;;;6.38;3.45;;;12.50;99.90;;;;;;5052467;28;20210;-60
2023/09/26 02:35:20;;;;;;;3.67;3.40;;;12.50;99.90;;;;;;5052648;28;20210;-59
2023/09/26 02:37:48;;;;;;;5.50;3.20;;;12.50;99.90;;;;;;5052632;28;20209;-60
2023/09/26 02:40:16;;;;;;;4.53;3.92;;;12.40;99.90;;;;;;5052321;28;20226;-58
2023/09/26 02:42:44;;;;;;;4.07;3.58;;;12.40;99.90;;;;;;5052377;28;20233;-61
2023/09/26 02:45:12;;;;;;;8.18;3.20;;;12.30;99.90;;;;;;5052635;28;20214;-60
2023/09/26 02:47:40;;;;;;;5.00;3.28;;;12.30;99.90;;;;;;5052107;28;20208;-60
2023/09/26 02:50:09;;;;;;;7.50;3.28;;;12.30;99.90;;;;;;5052145;28;20230;-60
2023/09/26 02:52:41;;;;;;;4.05;3.65;;;12.30;99.90;;;;;;5052383;28;20283;-59
2023/09/26 02:55:09;;;;;;;5.65;3.10;;;12.30;99.90;;;;;;5052443;28;20687;-58
2023/09/26 02:57:37;;;;;;;3.58;3.22;;;12.30;99.90;;;;;;5051951;28;20210;-59
2023/09/26 03:00:16;;;;;;;4.00;3.70;;;12.20;99.90;;;;;;5051661;28;20826;-58
2023/09/26 03:02:45;;;;;;;4.10;3.70;;;12.20;99.90;;;;;;5051494;28;20287;-60
2023/09/26 03:05:13;;;;;;;5.13;3.80;;;12.10;99.90;;;;;;5052347;28;20272;-59
2023/09/26 03:07:42;;;;;;;6.43;3.55;;;12.10;99.90;;;;;;5051962;28;20683;-60
2023/09/26 03:10:10;;;;;;;5.30;3.60;;;12.10;99.90;;;;;;5051795;28;20645;-60
2023/09/26 03:12:43;;;;;;;3.50;3.20;;;12.10;99.90;;;;;;5051540;28;20210;-60
2023/09/26 03:15:11;;;;;;;5.60;3.35;;;12.10;99.90;;;;;;5052001;28;20213;-60
2023/09/26 03:17:39;;;;;;;4.72;3.53;;;12.10;99.90;;;;;;5051680;28;20214;-58
2023/09/26 03:20:09;;;;;;;3.30;2.80;;;12.10;99.90;;;;;;5051402;28;20635;-59
2023/09/26 03:22:37;;;;;;;3.38;3.08;;;12.10;99.90;;;;;;5051639;28;20209;-60
2023/09/26 03:25:07;;;;;;;3.05;2.85;;;12.10;99.90;;;;;;5051479;28;20286;-59
2023/09/26 03:27:35;;;;;;;6.03;3.53;;;12.00;99.90;;;;;;5051586;28;20295;-60
2023/09/26 03:30:03;;;;;;;5.85;3.88;;;12.10;99.90;;;;;;5051013;28;20238;-60
2023/09/26 03:32:31;;;;;;;3.72;3.42;;;12.00;99.90;;;;;;5051532;28;20214;-59
2023/09/26 03:34:59;;;;;;;8.70;3.80;;;12.00;99.90;;;;;;5043361;28;20206;-60
2023/09/26 03:37:27;;;;;;;4.97;3.75;;;12.00;99.90;;;;;;5051185;28;20210;-59
2023/09/26 03:39:55;;;;;;;4.75;3.85;;;12.00;99.90;;;;;;5050729;28;20229;-59
2023/09/26 03:42:24;;;;;;;3.53;3.22;;;11.90;99.90;;;;;;5051097;28;20210;-59
2023/09/26 03:44:53;;;;;;;3.97;3.67;;;11.90;99.90;;;;;;5050737;28;20567;-59
2023/09/26 03:47:21;;;;;;;3.47;3.22;;;11.90;99.90;;;;;;5051189;28;20233;-60
2023/09/26 03:49:52;;;;;;;3.58;3.28;;;11.90;99.90;;;;;;5050611;28;20226;-59
2023/09/26 03:52:20;;;;;;;4.35;3.63;;;11.90;99.90;;;;;;5050989;28;20223;-60
2023/09/26 03:54:48;;;;;;;6.22;3.70;;;11.90;99.90;;;;;;5050986;28;20644;-61
2023/09/26 03:57:16;;;;;;;3.72;3.30;;;11.90;99.90;;;;;;5051259;28;20715;-60
2023/09/26 03:59:48;;;;;;;5.03;3.72;;;11.90;99.90;;;;;;5050669;28;20269;-61
2023/09/26 04:02:16;;;;;;;3.97;3.67;;;11.90;99.90;;;;;;5051035;28;20248;-61
2023/09/26 04:04:44;;;;;;;4.03;3.55;;;11.90;99.90;;;;;;5047860;28;20585;-60
2023/09/26 04:07:12;;;;;;;3.97;3.72;;;11.90;99.90;;;;;;5051000;28;20690;-61
2023/09/26 04:09:40;;;;;;;4.65;4.25;;;11.90;99.90;;;;;;5049939;28;20209;-60
2023/09/26 04:12:08;;;;;;;5.78;3.90;;;11.90;99.90;;;;;;5050980;28;20197;-61
2023/09/26 04:14:36;;;;;;;4.95;3.90;;;11.90;99.90;;;;;;5050516;28;20245;-61
2023/09/26 04:17:05;;;;;;;5.53;3.45;;;11.90;99.90;;;;;;5050716;28;20647;-61
2023/09/26 04:19:34;;;;;;;5.53;3.63;;;11.90;99.90;;;;;;5050360;28;20245;-60
2023/09/26 04:22:03;;;;;;;4.03;3.72;;;11.80;99.90;;;;;;5050851;28;20198;-61
2023/09/26 04:24:31;;;;;;;3.92;3.72;;;11.80;99.90;;;;;;5050810;28;20205;-61
2023/09/26 04:26:59;;;;;;;6.13;3.42;;;11.80;99.90;;;;;;5050786;28;20245;-61
2023/09/26 04:29:27;;;;;;;4.65;4.10;;;11.80;99.90;;;;;;5044401;28;20229;-60
2023/09/26 04:31:55;;;;;;;3.78;3.55;;;11.80;99.90;;;;;;5048285;28;20706;-61
2023/09/26 04:34:27;;;;;;;4.25;3.90;;;11.70;99.90;;;;;;5048566;28;20267;-61
2023/09/26 04:36:55;;;;;;;4.70;4.30;;;11.70;99.90;;;;;;5049182;28;20263;-61
2023/09/26 04:39:24;;;;;;;3.50;3.20;;;11.70;99.90;;;;;;5045618;28;20218;-61
2023/09/26 04:41:52;;;;;;;3.78;3.58;;;11.70;99.90;;;;;;5064651;22;20230;-54
2023/09/26 04:44:20;;;;;;;5.45;3.90;;;11.70;99.90;;;;;;5058437;28;20237;-57
2023/09/26 04:46:48;;;;;;;4.47;4.07;;;11.70;99.90;;;;;;5056674;28;20745;-58
2023/09/26 04:49:17;;;;;;;3.85;3.55;;;11.70;99.90;;;;;;5049007;28;20828;-56
2023/09/26 04:51:46;;;;;;;4.13;3.80;;;11.60;99.90;;;;;;5043276;28;20744;-62
2023/09/26 04:54:14;;;;;;;4.55;4.15;;;11.60;99.90;;;;;;5034320;28;20722;-55
2023/09/26 04:56:42;;;;;;;3.80;3.55;;;11.60;99.90;;;;;;5041788;28;20672;-55
2023/09/26 04:59:10;;;;;;;6.20;4.43;;;11.60;99.90;;;;;;5030639;28;20688;-57
2023/09/26 05:01:38;;;;;;;4.13;3.72;;;11.50;99.90;;;;;;5047532;28;20260;-62
2023/09/26 05:04:06;;;;;;;4.55;4.10;;;11.50;99.90;;;;;;5050897;28;20291;-56
2023/09/26 05:06:34;;;;;;;4.25;3.88;;;11.50;99.90;;;;;;5048311;28;20260;-55
2023/09/26 05:09:03;;;;;;;7.85;3.75;;;11.50;99.90;;;;;;5044532;28;20639;-55
2023/09/26 05:11:31;;;;;;;4.03;3.63;;;11.50;99.90;;;;;;5050409;28;20222;-57
2023/09/26 05:13:59;;;;;;;7.22;4.40;;;11.50;99.90;;;;;;5050787;28;20236;-59
2023/09/26 05:16:27;;;;;;;6.05;4.35;;;11.50;99.90;;;;;;5050734;28;20213;-55
2023/09/26 05:18:55;;;;;;;7.00;4.13;;;11.50;99.90;;;;;;5049582;28;20256;-56
2023/09/26 05:21:23;;;;;;;4.07;3.60;;;11.40;99.90;;;;;;5051295;28;20225;-58
2023/09/26 05:23:52;;;;;;;4.05;3.67;;;11.40;99.90;;;;;;5054164;28;20263;-59
2023/09/26 05:26:21;;;;;;;5.13;4.13;;;11.40;99.90;;;;;;5054585;28;20218;-55
2023/09/26 05:28:49;;;;;;;4.90;3.92;;;11.40;99.90;;;;;;5054041;28;20241;-60
2023/09/26 05:31:17;;;;;;;5.30;4.65;;;11.40;99.90;;;;;;5051183;28;20229;-54
2023/09/26 05:33:46;;;;;;;6.47;4.45;;;11.40;99.90;;;;;;5053906;28;20251;-54
2023/09/26 05:36:13;;;;;;;5.82;4.50;;;11.40;99.90;;;;;;5054188;28;20230;-57
2023/09/26 05:38:41;;;;;;;5.15;4.63;;;11.30;99.90;;;;;;5053545;28;20738;-56
2023/09/26 05:41:11;;;;;;;7.70;4.63;;;11.30;99.90;;;;;;5054070;28;20312;-55
2023/09/26 05:43:40;;;;;;;5.30;4.90;;;11.30;99.90;;;;;;5053934;28;20855;-55
2023/09/26 05:46:08;;;;;;;4.68;4.13;;;11.30;99.90;;;;;;5046341;28;20292;-56
2023/09/26 05:48:39;;;;;;;4.30;3.90;;;11.30;99.90;;;;;;5053765;28;20224;-54
2023/09/26 05:51:07;;;;;;;5.10;4.55;;;11.30;99.90;;;;;;5050013;28;20222;-54
2023/09/26 05:53:35;;;;;;;4.68;4.30;;;11.30;99.90;;;;;;5043841;28;20233;-54
2023/09/26 05:56:03;;;;;;;5.55;4.13;;;11.40;99.90;;;;;;5053951;28;20202;-54
2023/09/26 05:58:31;;;;;;;9.73;4.40;;;11.40;99.90;;;;;;5053464;28;20217;-54
2023/09/26 06:01:06;;;;;;;5.90;4.72;;;11.40;99.90;;;;;;5053596;28;20719;-55
2023/09/26 06:03:34;;;;;;;7.75;4.30;;;11.50;99.90;;;;;;5053607;28;20209;-55
2023/09/26 06:06:03;;;;;;;5.32;4.85;;;11.50;99.90;;;;;;5053923;28;20205;-58
2023/09/26 06:08:31;;;;;;;11.38;4.60;;;11.50;99.90;;;;;;5053110;28;20678;-55
2023/09/26 06:11:00;;;;;;;4.93;4.43;;;11.50;99.90;;;;;;5053653;28;20303;-54
2023/09/26 06:13:28;;;;;;;9.75;5.03;;;11.60;99.90;;;;;;5053318;28;20205;-54
2023/09/26 06:15:56;;;;;;;5.85;5.30;;;11.60;99.90;;;;;;5051530;28;20677;-60
2023/09/26 06:18:25;;;;;;;10.05;5.72;;;11.70;99.90;;;;;;5033957;28;20213;-58
2023/09/26 06:20:53;;;;;;;6.20;5.40;;;11.70;99.90;;;;;;5044197;28;20287;-54
2023/09/26 06:23:21;;;;;;;11.05;5.40;;;11.70;99.90;;;;;;5045996;28;20738;-55
2023/09/26 06:25:57;;;;;;;9.30;5.55;;;11.80;99.90;;;;;;5050623;28;20202;-56
2023/09/26 06:28:25;;;;;;;6.00;5.40;;;11.80;99.90;;;;;;5032699;28;20242;-55
2023/09/26 06:30:53;;;;;;;12.65;4.85;;;11.90;99.90;;;;;;5051214;28;20229;-56
2023/09/26 06:33:21;;;;;;;10.60;5.10;;;11.90;99.90;;;;;;5046632;28;20214;-54
2023/09/26 06:35:50;;;;;;;7.57;4.90;;;12.00;99.90;;;;;;5045089;28;20293;-55
2023/09/26 06:38:19;;;;;;;5.25;4.68;;;12.00;99.90;;;;;;5049773;28;20268;-54
2023/09/26 06:40:47;;;;;;;7.78;4.38;;;12.00;99.90;;;;;;5035120;28;20249;-54
2023/09/26 06:43:15;;;;;;;7.43;4.82;;;12.10;99.90;;;;;;5037012;28;20587;-55
2023/09/26 06:45:43;;;;;;;10.35;5.97;;;12.10;99.90;;;;;;5049420;28;20259;-55
2023/09/26 06:48:11;;;;;;;7.88;5.10;;;12.20;99.90;;;;;;5044958;28;20202;-56
2023/09/26 06:50:43;;;;;;;5.57;5.05;;;12.30;99.90;;;;;;5052456;28;20316;-58
2023/09/26 06:53:12;;;;;;;11.23;5.43;;;12.30;99.90;;;;;;5044531;28;20225;-54
2023/09/26 06:55:40;;;;;;;7.55;6.70;;;12.40;99.90;;;;;;5052504;28;20262;-53
2023/09/26 06:58:08;;;;;;;10.05;7.30;;;12.50;99.90;;;;;;5052620;28;20709;-55
2023/09/26 07:00:37;;;;;;;9.38;6.63;;;12.50;99.90;;;;;;5052206;28;20717;-55
2023/09/26 07:03:06;;;;;;;9.52;7.60;;;12.60;99.90;;;;;;5052422;28;20202;-56
2023/09/26 07:05:34;;;;;;;8.23;7.38;;;12.70;99.90;;;;;;5052031;28;20295;-57
2023/09/26 07:08:02;;;;;;;8.05;7.35;;;12.80;99.90;;;;;;5052191;28;20241;-56
2023/09/26 07:10:31;;;;;;;9.60;7.53;;;12.90;99.90;;;;;;5051501;28;20283;-57
2023/09/26 07:12:59;;;;;;;9.65;8.38;;;13.00;99.90;;;;;;5052135;28;20237;-54
2023/09/26 07:15:28;;;;;;;10.00;7.95;;;13.10;99.90;;;;;;5051949;28;20560;-53
2023/09/26 07:17:56;;;;;;;8.40;7.63;;;13.20;99.90;;;;;;5051263;28;20206;-54
2023/09/26 07:20:24;;;;;;;9.55;7.15;;;13.30;99.90;;;;;;5051344;28;20639;-54
2023/09/26 07:22:53;;;;;;;8.40;7.60;;;13.30;99.90;;;;;;5043643;28;20664;-54
2023/09/26 07:25:21;;;;;;;8.25;7.43;;;13.40;99.90;;;;;;5051669;28;20665;-54
2023/09/26 07:27:50;;;;;;;10.55;8.00;;;13.50;99.90;;;;;;5051681;28;20631;-54
2023/09/26 07:30:18;;;;;;;9.10;8.00;;;13.60;99.90;;;;;;5051208;28;20221;-56
2023/09/26 07:32:46;;;;;;;8.90;8.02;;;13.70;99.90;;;;;;5051532;28;20221;-55
2023/09/26 07:35:14;;;;;;;10.63;7.72;;;13.90;99.90;;;;;;5051397;28;20651;-55
2023/09/26 07:37:42;;;;;;;10.85;7.40;;;14.00;99.90;;;;;;5051848;28;20210;-55
2023/09/26 07:40:10;;;;;;;10.57;7.28;;;14.10;99.90;;;;;;5051241;28;20221;-56
2023/09/26 07:42:39;;;;;;;8.48;6.85;;;14.20;99.90;;;;;;5044839;28;20352;-58
2023/09/26 07:45:10;;;;;;;9.98;6.50;;;14.30;99.90;;;;;;5048254;28;20214;-54
2023/09/26 07:47:38;;;;;;;6.50;5.80;;;14.40;99.90;;;;;;5046913;28;20277;-55
2023/09/26 07:50:07;;;;;;;11.13;6.25;;;14.60;99.90;;;;;;5050563;28;20206;-57
2023/09/26 07:52:35;;;;;;;7.53;6.15;;;14.60;99.90;;;;;;5044584;28;20269;-54
2023/09/26 07:55:04;;;;;;;11.82;6.03;;;14.70;99.90;;;;;;5049854;28;20198;-54
2023/09/26 07:57:32;;;;;;;9.82;5.20;;;14.90;99.90;;;;;;5044067;28;20239;-55
2023/09/26 08:00:00;;;;;;;5.57;4.88;;;15.00;99.90;;;;;;5041228;28;20683;-55
2023/09/26 08:02:29;;;;;;;9.00;3.97;;;15.10;99.90;;;;;;5039967;28;20234;-54
2023/09/26 08:04:57;;;;;;;7.45;4.00;;;15.20;99.90;;;;;;5049897;28;20288;-55
2023/09/26 08:07:25;;;;;;;5.82;4.35;;;15.30;99.90;;;;;;5051906;28;20206;-56
2023/09/26 08:09:55;;;;;;;4.18;3.78;;;15.40;99.90;;;;;;5042971;28;20268;-55
2023/09/26 08:12:23;;;;;;;7.07;4.13;;;15.50;99.90;;;;;;5046791;28;20246;-57
2023/09/26 08:14:54;;;;;;;4.20;3.80;;;15.60;99.90;;;;;;5048075;28;20343;-55
2023/09/26 08:17:21;;;;;;;4.78;3.30;;;15.70;99.90;;;;;;5051589;28;20746;-55
2023/09/26 08:19:51;;;;;;;6.88;3.08;;;15.80;99.90;;;;;;5050296;28;20244;-55
2023/09/26 08:22:19;;;;;;;3.25;3.05;;;15.90;99.90;;;;;;5044215;28;20296;-54
2023/09/26 08:24:47;;;;;;;3.38;3.08;;;16.00;99.90;;;;;;5043576;28;20209;-55
2023/09/26 08:27:16;;;;;;;5.03;3.30;;;16.00;99.90;;;;;;5044019;28;20206;-55
2023/09/26 08:29:44;;;;;;;3.92;3.28;;;16.20;99.90;;;;;;5035108;28;20296;-55
2023/09/26 08:32:11;;;;;;;4.22;2.88;;;16.20;99.90;;;;;;5042973;28;20325;-56
2023/09/26 08:34:39;;;;;;;2.80;2.70;;;16.30;99.90;;;;;;5052312;28;20229;-56
2023/09/26 08:37:10;;;;;;;3.28;3.08;;;16.40;99.90;;;;;;5040677;28;20280;-57
2023/09/26 08:39:38;;;;;;;3.38;3.17;;;16.50;99.90;;;;;;5051419;28;20201;-56
2023/09/26 08:42:06;;;;;;;3.13;2.90;;;16.70;99.90;;;;;;5042416;28;20332;-56
2023/09/26 08:44:34;;;;;;;2.95;2.75;;;16.70;99.90;;;;;;5043860;28;20209;-58
2023/09/26 08:47:02;;;;;;;8.05;2.83;;;16.80;99.90;;;;;;5047505;28;20206;-57
2023/09/26 08:49:30;;;;;;;2.97;2.70;;;16.90;99.90;;;;;;5044671;28;20263;-57
2023/09/26 08:51:58;;;;;;;3.67;2.65;;;17.10;99.90;;;;;;5050685;28;20702;-55
2023/09/26 08:54:28;;;;;;;2.85;2.55;;;17.20;99.90;;;;;;5044431;28;20627;-56
2023/09/26 08:56:56;;;;;;;2.67;2.58;;;17.30;99.90;;;;;;5052277;28;20602;-55
2023/09/26 08:59:24;;;;;;;3.95;2.83;;;17.40;99.90;;;;;;5054627;28;20637;-55
2023/09/26 09:01:52;;;;;;;2.28;2.17;;;17.60;99.90;;;;;;5054661;28;20229;-57
2023/09/26 09:04:21;;;;;;;2.63;2.42;;;17.70;99.90;;;;;;5050915;28;20213;-55
2023/09/26 09:06:49;;;;;;;3.63;2.60;;;17.90;99.90;;;;;;5051230;28;20201;-56
2023/09/26 09:09:17;;;;;;;2.30;2.20;;;18.10;99.90;;;;;;5046123;28;20635;-56
2023/09/26 09:11:46;;;;;;;2.67;2.55;;;18.30;99.90;;;;;;5044682;28;20262;-57
2023/09/26 09:14:14;;;;;;;4.28;2.88;;;18.50;99.90;;;;;;5049197;28;20229;-55
2023/09/26 09:16:45;;;;;;;4.55;2.58;;;18.70;99.90;;;;;;5042522;28;20625;-55
2023/09/26 09:19:13;;;;;;;2.28;2.08;;;18.80;99.90;;;;;;5042130;28;20710;-56
2023/09/26 09:21:41;;;;;;;2.45;2.28;;;19.00;99.90;;;;;;5046382;28;20233;-56
2023/09/26 09:24:09;;;;;;;3.08;2.50;;;19.20;99.90;;;;;;5044087;28;20198;-56
2023/09/26 09:26:37;;;;;;;4.13;2.22;;;19.30;99.90;;;;;;5048511;28;20203;-55
2023/09/26 09:29:20;;;;;;;2.50;2.30;;;19.40;99.90;;;;;;5043361;28;20201;-56
2023/09/26 09:31:48;;;;;;;3.90;2.25;;;19.60;99.90;;;;;;5041533;28;20222;-55
2023/09/26 09:34:16;;;;;;;4.78;3.15;;;19.90;99.90;;;;;;5040519;28;20222;-56
2023/09/26 09:36:44;;;;;;;6.68;3.00;;;20.20;99.90;;;;;;5036757;28;20206;-54
2023/09/26 09:39:13;;;;;;;2.33;2.22;;;20.40;99.90;;;;;;5036736;28;20241;-57
2023/09/26 09:41:41;;;;;;;7.53;4.00;;;20.60;99.90;;;;;;5053492;28;20703;-58
2023/09/26 09:44:09;;;;;;;3.85;2.33;;;20.90;99.90;;;;;;5042536;28;20294;-57
2023/09/26 09:46:38;;;;;;;3.03;2.30;;;21.20;99.90;;;;;;5041963;28;20640;-57
2023/09/26 09:49:09;;;;;;;2.50;1.80;;;21.50;99.90;;;;;;5042671;28;20760;-56
2023/09/26 09:51:39;;;;;;;2.67;2.13;;;21.80;99.90;;;;;;5045976;28;20753;-57
2023/09/26 09:54:07;;;;;;;3.47;2.15;;;22.10;99.90;;;;;;5040798;28;20214;-56
2023/09/26 09:56:37;;;;;;;3.80;2.20;;;22.40;99.90;;;;;;5042269;28;20205;-56
2023/09/26 09:59:05;;;;;;;3.80;2.00;;;22.70;99.90;;;;;;5040841;28;20206;-56
2023/09/26 10:01:34;;;;;;;3.38;2.15;;;22.90;99.90;;;;;;5039382;28;20231;-57
2023/09/26 10:04:04;;;;;;;2.58;2.08;;;23.20;99.90;;;;;;5045419;28;20256;-56
2023/09/26 10:06:32;;;;;;;3.78;2.05;;;23.40;99.90;;;;;;5053527;28;20205;-57
2023/09/26 10:09:00;;;;;;;2.70;2.45;;;23.50;99.90;;;;;;5040955;28;20263;-57
2023/09/26 10:11:28;;;;;;;5.18;2.42;;;23.70;99.90;;;;;;5040350;28;20225;-56
2023/09/26 10:13:58;;;;;;;1.95;1.80;;;23.90;99.90;;;;;;5033519;28;20691;-59
2023/09/26 10:16:26;;;;;;;2.30;2.20;;;24.10;99.90;;;;;;5053580;28;20289;-57
2023/09/26 10:18:54;;;;;;;2.67;1.95;;;24.30;99.90;;;;;;5053287;28;20228;-58
2023/09/26 10:21:25;;;;;;;2.00;1.90;;;24.50;99.90;;;;;;5041667;28;20317;-56
2023/09/26 10:24:28;;;;;;;2.83;2.17;;;24.70;99.90;;;;;;5049692;28;20201;-56
2023/09/26 10:26:59;;;;;;;4.13;2.00;;;24.80;99.90;;;;;;5041676;28;20205;-58
2023/09/26 10:29:36;;;;;;;3.33;1.75;;;25.00;99.90;;;;;;5052727;28;20197;-57
2023/09/26 10:32:05;;;;;;;4.28;1.90;;;25.30;99.90;;;;;;5052960;28;20235;-57
2023/09/26 10:34:34;;;;;;;2.88;2.05;;;25.60;99.90;;;;;;5052725;28;20224;-56
2023/09/26 10:37:25;;;;;;;3.72;2.15;;;25.80;99.90;;;;;;5044916;28;20212;-57
2023/09/26 10:39:52;;;;;;;2.47;2.20;;;25.80;99.90;;;;;;5052632;28;20275;-58
2023/09/26 10:42:22;;;;;;;2.05;1.95;;;25.90;99.90;;;;;;5053341;22;20217;-58
2023/09/26 10:44:52;;;;;;;6.18;2.30;;;25.90;99.90;;;;;;5067417;28;20339;-57
2023/09/26 10:47:22;;;;;;;3.60;2.45;;;26.10;99.90;;;;;;5072831;28;20201;-58
2023/09/26 10:49:50;;;;;;;1.85;1.75;;;26.40;99.90;;;;;;5072611;28;20222;-57
2023/09/26 10:52:18;;;;;;;4.18;1.80;;;26.70;99.90;;;;;;5068100;28;20207;-54
2023/09/26 10:54:47;;;;;;;3.42;2.30;;;26.90;99.90;;;;;;5052419;28;20217;-53
2023/09/26 10:57:20;;;;;;;2.17;2.08;;;27.10;99.90;;;;;;5052011;28;20202;-54
2023/09/26 10:59:49;;;;;;;2.80;2.10;;;27.30;99.90;;;;;;5052435;28;20202;-53
2023/09/26 11:02:17;;;;;;;4.80;2.35;;;27.40;99.90;;;;;;5049286;28;20790;-55
2023/09/26 11:04:44;;;;;;;6.07;2.08;;;27.60;99.90;;;;;;5052103;28;20193;-53
2023/09/26 11:07:13;;;;;;;2.30;2.05;;;27.90;99.90;;;;;;5051940;28;20212;-55
2023/09/26 11:09:41;;;;;;;3.10;2.35;;;28.00;99.90;;;;;;5051890;28;20229;-56
2023/09/26 11:12:12;;;;;;;4.90;2.42;;;28.20;99.90;;;;;;5052163;28;20209;-53
2023/09/26 11:14:41;;;;;;;5.40;2.20;;;28.40;99.90;;;;;;5051930;28;20907;-53
2023/09/26 11:17:09;;;;;;;1.75;1.65;;;28.40;99.90;;;;;;5051970;28;20229;-53
2023/09/26 11:19:37;;;;;;;2.67;2.47;;;28.60;99.90;;;;;;5051460;28;20259;-56
2023/09/26 11:22:06;;;;;;;2.28;2.17;;;28.70;99.90;;;;;;5051758;28;20579;-53
2023/09/26 11:24:34;;;;;;;2.33;2.17;;;28.80;99.90;;;;;;5051549;28;20935;-53
2023/09/26 11:27:04;;;;;;;2.03;1.92;;;28.80;99.90;;;;;;5051601;28;20259;-54
2023/09/26 11:29:35;;;;;;;4.65;2.80;;;29.20;99.90;;;;;;5051718;28;20202;-53
2023/09/26 11:32:03;;;;;;;3.90;2.22;;;29.40;99.90;;;;;;5051700;28;20232;-53
2023/09/26 11:34:32;;;;;;;2.28;2.08;;;29.40;99.90;;;;;;5051620;28;20221;-54
2023/09/26 11:37:00;;;;;;;3.45;2.00;;;29.40;99.90;;;;;;5051471;28;20259;-55
2023/09/26 11:39:28;;;;;;;4.75;2.40;;;29.60;99.90;;;;;;5051234;28;20228;-54
2023/09/26 11:42:05;;;;;;;2.60;2.40;;;29.70;99.90;;;;;;5051837;28;20213;-54
2023/09/26 11:44:35;;;;;;;4.65;1.98;;;29.60;99.90;;;;;;5051387;28;20235;-53
2023/09/26 11:47:04;;;;;;;2.10;1.90;;;29.60;99.90;;;;;;5051491;28;20209;-53
2023/09/26 11:49:33;;;;;;;4.22;2.35;;;29.90;99.90;;;;;;5050935;28;20564;-54
2023/09/26 11:52:01;;;;;;;5.82;2.20;;;30.00;99.90;;;;;;5046420;28;20667;-54
2023/09/26 11:54:29;;;;;;;2.55;2.35;;;30.10;99.90;;;;;;5051438;28;20298;-59
2023/09/26 11:56:57;;;;;;;2.85;2.15;;;30.20;99.90;;;;;;5051892;28;20201;-59
2023/09/26 11:59:26;;;;;;;3.58;2.60;;;30.10;99.90;;;;;;5051057;28;20288;-59
2023/09/26 12:01:58;;;;;;;3.38;2.10;;;30.10;99.90;;;;;;5051406;28;20279;-61
2023/09/26 12:04:26;;;;;;;2.13;2.03;;;30.10;99.90;;;;;;5035126;28;20221;-59
2023/09/26 12:06:54;;;;;;;2.45;2.28;;;30.40;99.90;;;;;;5051657;28;20201;-60
2023/09/26 12:09:22;;;;;;;5.78;2.10;;;30.50;99.90;;;;;;5050631;28;20296;-60
2023/09/26 12:11:52;;;;;;;2.63;2.42;;;30.70;99.90;;;;;;5051488;28;20229;-59
2023/09/26 12:14:20;;;;;;;3.28;2.42;;;30.80;99.90;;;;;;5049822;28;20714;-58
2023/09/26 12:16:50;;;;;;;2.22;1.95;;;30.90;99.90;;;;;;5051553;28;20248;-58
2023/09/26 12:19:21;;;;;;;2.60;2.40;;;31.00;99.80;;;;;;5050959;28;20213;-58
2023/09/26 12:21:49;;;;;;;4.15;2.28;;;31.30;99.00;;;;;;5051433;28;20236;-59
2023/09/26 12:24:17;;;;;;;2.88;2.67;;;31.40;99.40;;;;;;5051071;28;20221;-59
2023/09/26 12:26:46;;;;;;;2.15;2.03;;;31.50;98.70;;;;;;5051451;28;20659;-59
2023/09/26 12:29:14;;;;;;;2.67;2.50;;;31.40;99.00;;;;;;5050522;28;20884;-57
2023/09/26 12:31:43;;;;;;;6.53;2.25;;;31.30;98.00;;;;;;5042439;28;20232;-58
2023/09/26 12:34:13;;;;;;;3.80;2.28;;;31.00;99.50;;;;;;5042502;28;20237;-60
2023/09/26 12:36:42;;;;;;;2.95;2.20;;;31.00;98.90;;;;;;5051360;28;20706;-60
2023/09/26 12:39:10;;;;;;;2.70;2.00;;;31.10;99.00;;;;;;5050828;28;20201;-59
2023/09/26 12:41:39;;;;;;;2.17;2.00;;;31.30;98.30;;;;;;5050977;28;20216;-59
2023/09/26 12:44:07;;;;;;;2.00;1.90;;;31.40;98.70;;;;;;5050985;28;20230;-60
2023/09/26 12:46:38;;;;;;;5.32;1.70;;;31.40;98.70;;;;;;5051185;28;20666;-58
2023/09/26 12:49:06;;;;;;;3.25;1.92;;;31.40;98.40;;;;;;5050931;28;20236;-59
2023/09/26 12:51:35;;;;;;;2.80;2.60;;;31.20;98.50;;;;;;5049529;28;20208;-59
2023/09/26 12:54:05;;;;;;;4.15;2.40;;;31.20;97.50;;;;;;5047497;28;20221;-60